createdAt,value
2018-03-30T00:01:59.503Z,25.95
2018-03-30T00:04:28.618Z,25.96
2018-03-30T00:06:57.565Z,25.96
2018-03-30T00:09:38.233Z,25.96
2018-03-30T00:12:07.349Z,25.96
2018-03-30T00:14:36.443Z,25.95
2018-03-30T00:17:05.561Z,25.95
2018-03-30T00:19:34.663Z,25.95
2018-03-30T00:22:03.656Z,25.95
2018-03-30T00:24:32.750Z,25.97
2018-03-30T00:27:01.858Z,25.96
2018-03-30T00:29:30.970Z,25.96
2018-03-30T00:32:00.074Z,25.96
2018-03-30T00:34:29.505Z,25.97
2018-03-30T00:36:58.611Z,25.97
2018-03-30T00:39:27.512Z,25.97
2018-03-30T00:41:56.625Z,25.97
2018-03-30T00:44:25.725Z,25.98
2018-03-30T00:46:54.848Z,25.98
2018-03-30T00:49:23.970Z,25.98
2018-03-30T00:51:53.074Z,25.98
2018-03-30T00:54:22.201Z,25.98
2018-03-30T00:56:51.297Z,25.99
2018-03-30T00:59:20.415Z,25.99
2018-03-30T01:01:49.519Z,25.99
2018-03-30T01:04:18.670Z,25.99
2018-03-30T01:06:47.958Z,25.99
2018-03-30T01:09:17.054Z,25.98
2018-03-30T01:11:46.168Z,25.98
2018-03-30T01:14:15.261Z,25.99
2018-03-30T01:16:44.276Z,25.99
2018-03-30T01:19:13.395Z,25.98
2018-03-30T01:21:42.488Z,25.99
2018-03-30T01:24:12.001Z,26.00
2018-03-30T01:26:41.103Z,26.00
2018-03-30T01:29:10.207Z,25.99
2018-03-30T01:31:39.342Z,26.01
2018-03-30T01:34:08.466Z,26.01
2018-03-30T01:36:38.146Z,26.00
2018-03-30T01:39:07.249Z,25.99
2018-03-30T01:41:36.343Z,26.00
2018-03-30T01:44:05.459Z,26.00
2018-03-30T01:46:34.552Z,26.00
2018-03-30T01:49:03.993Z,26.01
2018-03-30T01:51:33.103Z,26.01
2018-03-30T01:54:02.209Z,26.01
2018-03-30T01:56:31.336Z,26.00
2018-03-30T01:59:00.489Z,26.00
2018-03-30T02:01:29.865Z,26.01
2018-03-30T02:03:58.864Z,26.01
2018-03-30T02:06:27.975Z,26.01
2018-03-30T02:08:57.089Z,26.01
2018-03-30T02:11:26.193Z,26.02
2018-03-30T02:13:55.645Z,26.03
2018-03-30T02:16:24.748Z,26.01
2018-03-30T02:18:53.859Z,26.02
2018-03-30T02:21:22.893Z,26.02
2018-03-30T02:23:51.988Z,26.03
2018-03-30T02:26:21.990Z,26.03
2018-03-30T02:28:51.093Z,26.02
2018-03-30T02:31:20.079Z,26.02
2018-03-30T02:33:49.226Z,26.03
2018-03-30T02:36:18.090Z,26.02
2018-03-30T02:38:47.811Z,26.02
2018-03-30T02:41:16.913Z,26.04
2018-03-30T02:43:46.017Z,26.04
2018-03-30T02:46:15.140Z,26.04
2018-03-30T02:48:44.238Z,26.04
2018-03-30T02:51:13.845Z,26.04
2018-03-30T02:53:42.938Z,26.04
2018-03-30T02:56:12.049Z,26.03
2018-03-30T02:58:41.231Z,26.04
2018-03-30T03:01:10.701Z,26.04
2018-03-30T03:03:39.866Z,26.05
2018-03-30T03:06:08.963Z,26.01
2018-03-30T03:08:38.067Z,26.01
2018-03-30T03:11:07.181Z,25.96
2018-03-30T03:13:36.286Z,25.96
2018-03-30T03:16:05.476Z,25.93
2018-03-30T03:18:35.524Z,25.90
2018-03-30T03:21:04.700Z,25.89
2018-03-30T03:23:35.305Z,25.85
2018-03-30T03:26:04.202Z,25.84
2018-03-30T03:28:33.713Z,25.81
2018-03-30T03:31:02.817Z,25.78
2018-03-30T03:33:31.916Z,25.77
2018-03-30T03:36:01.032Z,25.75
2018-03-30T03:38:30.205Z,25.71
2018-03-30T03:40:59.732Z,25.73
2018-03-30T03:43:28.831Z,25.71
2018-03-30T03:45:57.933Z,25.72
2018-03-30T03:48:27.045Z,25.71
2018-03-30T03:50:56.149Z,25.67
2018-03-30T03:53:25.601Z,25.69
2018-03-30T03:55:54.698Z,25.65
2018-03-30T03:58:23.786Z,25.65
2018-03-30T04:00:52.906Z,25.64
2018-03-30T04:03:22.009Z,25.62
2018-03-30T04:05:51.358Z,25.62
2018-03-30T04:08:20.502Z,25.61
2018-03-30T04:10:49.591Z,25.60
2018-03-30T04:13:18.709Z,25.58
2018-03-30T04:15:47.619Z,25.58
2018-03-30T04:18:16.764Z,25.58
2018-03-30T04:20:45.871Z,25.57
2018-03-30T04:23:14.972Z,25.55
2018-03-30T04:25:44.084Z,25.53
2018-03-30T04:28:13.185Z,25.53
2018-03-30T04:30:42.645Z,25.53
2018-03-30T04:33:11.742Z,25.50
2018-03-30T04:35:40.852Z,25.49
2018-03-30T04:38:09.808Z,25.48
2018-03-30T04:40:38.900Z,25.47
2018-03-30T04:43:08.422Z,25.47
2018-03-30T04:45:37.516Z,25.47
2018-03-30T04:48:06.617Z,25.44
2018-03-30T04:50:35.733Z,25.44
2018-03-30T04:53:04.841Z,25.44
2018-03-30T04:55:34.128Z,25.43
2018-03-30T04:58:03.218Z,25.42
2018-03-30T05:00:32.318Z,25.42
2018-03-30T05:03:01.193Z,25.42
2018-03-30T05:05:30.209Z,25.40
2018-03-30T05:07:59.622Z,25.38
2018-03-30T05:10:28.719Z,25.38
2018-03-30T05:12:58.243Z,25.36
2018-03-30T05:15:27.358Z,25.38
2018-03-30T05:17:56.488Z,25.36
2018-03-30T05:20:25.382Z,25.36
2018-03-30T05:22:54.254Z,25.33
2018-03-30T05:25:23.118Z,25.35
2018-03-30T05:27:52.233Z,25.35
2018-03-30T05:30:21.351Z,25.35
2018-03-30T05:32:50.492Z,25.36
2018-03-30T05:35:19.592Z,25.36
2018-03-30T05:37:48.713Z,25.35
2018-03-30T05:40:17.834Z,25.35
2018-03-30T05:42:46.934Z,25.33
2018-03-30T05:45:16.395Z,25.33
2018-03-30T05:47:45.493Z,25.31
2018-03-30T05:50:14.604Z,25.33
2018-03-30T05:52:43.742Z,25.33
2018-03-30T05:55:12.844Z,25.33
2018-03-30T05:57:42.102Z,25.31
2018-03-30T06:00:11.323Z,25.31
2018-03-30T06:02:40.450Z,25.31
2018-03-30T06:05:09.560Z,25.31
2018-03-30T06:07:38.662Z,25.32
2018-03-30T06:10:08.102Z,25.32
2018-03-30T06:12:37.291Z,25.30
2018-03-30T06:15:06.421Z,25.31
2018-03-30T06:17:35.542Z,25.31
2018-03-30T06:20:04.165Z,25.29
2018-03-30T06:22:33.465Z,25.30
2018-03-30T06:25:02.565Z,25.31
2018-03-30T06:27:31.665Z,25.29
2018-03-30T06:30:00.852Z,25.29
2018-03-30T06:32:29.972Z,25.29
2018-03-30T06:34:59.379Z,25.29
2018-03-30T06:37:28.258Z,25.29
2018-03-30T06:39:57.352Z,25.31
2018-03-30T06:42:26.477Z,25.33
2018-03-30T06:44:55.569Z,25.35
2018-03-30T06:47:24.697Z,25.35
2018-03-30T06:49:53.800Z,25.40
2018-03-30T06:52:23.078Z,25.41
2018-03-30T06:54:52.194Z,25.44
2018-03-30T06:57:21.293Z,25.45
2018-03-30T06:59:50.410Z,25.48
2018-03-30T07:02:19.535Z,25.48
2018-03-30T07:04:48.633Z,25.50
2018-03-30T07:07:17.756Z,25.50
2018-03-30T07:09:46.867Z,25.52
2018-03-30T07:12:16.289Z,25.47
2018-03-30T07:14:45.386Z,25.45
2018-03-30T07:17:14.486Z,25.44
2018-03-30T07:19:43.631Z,25.43
2018-03-30T07:22:12.748Z,25.40
2018-03-30T07:24:41.873Z,25.40
2018-03-30T07:27:10.971Z,25.40
2018-03-30T07:29:40.057Z,25.40
2018-03-30T07:32:09.185Z,25.40
2018-03-30T07:34:38.291Z,25.38
2018-03-30T07:37:07.406Z,25.38
2018-03-30T07:39:36.544Z,25.38
2018-03-30T07:42:05.637Z,25.38
2018-03-30T07:44:34.761Z,25.39
2018-03-30T07:47:03.933Z,25.37
2018-03-30T07:49:33.048Z,25.36
2018-03-30T07:52:02.366Z,25.37
2018-03-30T07:54:31.472Z,25.36
2018-03-30T07:57:00.462Z,25.33
2018-03-30T07:59:29.612Z,25.35
2018-03-30T08:01:58.739Z,25.32
2018-03-30T08:04:27.839Z,25.33
2018-03-30T08:06:56.933Z,25.29
2018-03-30T08:09:26.068Z,25.30
2018-03-30T08:11:54.935Z,25.30
2018-03-30T08:14:24.376Z,25.30
2018-03-30T08:16:53.481Z,25.29
2018-03-30T08:19:22.593Z,25.28
2018-03-30T08:21:51.717Z,25.28
2018-03-30T08:24:20.876Z,25.26
2018-03-30T08:26:50.020Z,25.27
2018-03-30T08:29:19.108Z,25.27
2018-03-30T08:31:48.211Z,25.27
2018-03-30T08:34:17.345Z,25.27
2018-03-30T08:36:46.449Z,25.27
2018-03-30T08:39:15.560Z,25.24
2018-03-30T08:41:44.661Z,25.23
2018-03-30T08:44:13.762Z,25.22
2018-03-30T08:46:42.885Z,25.21
2018-03-30T08:49:11.981Z,25.21
2018-03-30T08:51:41.957Z,25.23
2018-03-30T08:54:10.987Z,25.22
2018-03-30T08:56:40.097Z,25.22
2018-03-30T08:59:09.216Z,25.24
2018-03-30T09:01:38.312Z,25.22
2018-03-30T09:04:07.418Z,25.20
2018-03-30T09:06:36.524Z,25.19
2018-03-30T09:09:06.933Z,25.21
2018-03-30T09:11:36.043Z,25.21
2018-03-30T09:14:05.146Z,25.21
2018-03-30T09:16:34.343Z,25.22
2018-03-30T09:19:03.239Z,25.21
2018-03-30T09:21:32.356Z,25.22
2018-03-30T09:24:01.485Z,25.23
2018-03-30T09:26:30.625Z,25.21
2018-03-30T09:28:59.758Z,25.20
2018-03-30T09:31:28.853Z,25.21
2018-03-30T09:33:57.997Z,25.19
2018-03-30T09:36:27.092Z,25.20
2018-03-30T09:38:56.201Z,25.20
2018-03-30T09:41:25.342Z,25.20
2018-03-30T09:43:54.438Z,25.25
2018-03-30T09:46:23.624Z,25.26
2018-03-30T09:48:52.885Z,25.22
2018-03-30T09:51:22.002Z,25.27
2018-03-30T09:53:51.152Z,25.25
2018-03-30T09:56:20.241Z,25.33
2018-03-30T09:58:49.769Z,25.40
2018-03-30T10:01:18.678Z,25.41
2018-03-30T10:03:48.640Z,25.43
2018-03-30T10:06:17.654Z,25.50
2018-03-30T10:08:46.757Z,25.52
2018-03-30T10:11:15.883Z,25.52
2018-03-30T10:13:45.006Z,25.54
2018-03-30T10:16:14.116Z,25.56
2018-03-30T10:18:43.237Z,25.57
2018-03-30T10:21:12.344Z,25.60
2018-03-30T10:23:41.493Z,25.58
2018-03-30T10:26:10.626Z,25.60
2018-03-30T10:28:39.736Z,25.61
2018-03-30T10:31:08.874Z,25.57
2018-03-30T10:33:37.985Z,25.55
2018-03-30T10:36:07.124Z,25.49
2018-03-30T10:38:36.426Z,25.53
2018-03-30T10:41:05.519Z,25.39
2018-03-30T10:43:34.644Z,25.40
2018-03-30T10:46:03.949Z,25.38
2018-03-30T10:48:33.352Z,25.41
2018-03-30T10:51:02.446Z,25.42
2018-03-30T10:53:31.537Z,25.38
2018-03-30T10:56:00.894Z,25.32
2018-03-30T10:58:29.983Z,25.31
2018-03-30T11:00:59.104Z,25.40
2018-03-30T11:03:28.490Z,25.46
2018-03-30T11:05:57.601Z,25.38
2018-03-30T11:08:26.717Z,25.34
2018-03-30T11:10:55.809Z,25.44
2018-03-30T11:13:25.272Z,25.46
2018-03-30T11:15:54.373Z,25.53
2018-03-30T11:18:23.589Z,25.53
2018-03-30T11:20:52.705Z,25.52
2018-03-30T11:23:21.956Z,25.58
2018-03-30T11:25:51.680Z,25.62
2018-03-30T11:28:20.786Z,25.57
2018-03-30T11:30:49.872Z,25.62
2018-03-30T11:33:19.045Z,25.61
2018-03-30T11:35:48.172Z,25.54
2018-03-30T11:38:17.289Z,25.61
2018-03-30T11:40:46.657Z,25.62
2018-03-30T11:43:15.817Z,25.64
2018-03-30T11:45:44.930Z,25.63
2018-03-30T11:48:14.035Z,25.64
2018-03-30T11:50:43.166Z,25.61
2018-03-30T11:53:12.359Z,25.61
2018-03-30T11:55:41.255Z,25.60
2018-03-30T11:58:10.406Z,25.63
2018-03-30T12:00:39.585Z,25.63
2018-03-30T12:03:08.714Z,25.60
2018-03-30T12:05:37.819Z,25.65
2018-03-30T12:08:06.912Z,25.67
2018-03-30T12:10:36.054Z,25.65
2018-03-30T12:13:05.158Z,25.64
2018-03-30T12:15:34.266Z,25.65
2018-03-30T12:18:03.669Z,25.63
2018-03-30T12:20:32.773Z,25.56
2018-03-30T12:23:01.874Z,25.58
2018-03-30T12:25:30.749Z,25.61
2018-03-30T12:27:59.889Z,25.61
2018-03-30T12:30:28.750Z,25.63
2018-03-30T12:32:57.879Z,25.61
2018-03-30T12:35:26.981Z,25.58
2018-03-30T12:37:56.086Z,25.59
2018-03-30T12:40:25.209Z,25.60
2018-03-30T12:42:54.306Z,25.57
2018-03-30T12:45:23.457Z,25.52
2018-03-30T12:47:52.858Z,25.45
2018-03-30T12:50:21.954Z,25.43
2018-03-30T12:52:51.061Z,25.49
2018-03-30T12:55:20.537Z,25.48
2018-03-30T12:57:49.634Z,25.49
2018-03-30T13:00:18.725Z,25.47
2018-03-30T13:02:47.848Z,25.45
2018-03-30T13:05:16.998Z,25.42
2018-03-30T13:07:46.092Z,25.43
2018-03-30T13:10:15.021Z,25.41
2018-03-30T13:12:44.461Z,25.41
2018-03-30T13:15:13.579Z,25.39
2018-03-30T13:17:43.137Z,25.38
2018-03-30T13:20:12.240Z,25.43
2018-03-30T13:22:41.424Z,25.41
2018-03-30T13:25:10.537Z,25.39
2018-03-30T13:27:39.645Z,25.42
2018-03-30T13:30:08.750Z,25.39
2018-03-30T13:32:38.079Z,25.39
2018-03-30T13:35:07.176Z,25.45
2018-03-30T13:37:36.269Z,25.40
2018-03-30T13:40:05.399Z,25.32
2018-03-30T13:42:34.543Z,25.32
2018-03-30T13:45:04.146Z,25.47
2018-03-30T13:47:33.908Z,25.55
2018-03-30T13:50:02.825Z,25.56
2018-03-30T13:52:38.540Z,25.52
2018-03-30T13:55:09.598Z,25.45
2018-03-30T13:57:41.598Z,25.42
2018-03-30T14:00:15.683Z,25.39
2018-03-30T14:02:59.895Z,25.36
2018-03-30T14:19:17.116Z,25.33
2018-03-30T14:21:46.435Z,25.30
2018-03-30T14:24:19.882Z,25.32
2018-03-30T14:27:03.406Z,25.35
2018-03-30T14:29:34.909Z,25.49
2018-03-30T14:32:21.354Z,25.55
2018-03-30T14:34:50.297Z,25.53
2018-03-30T14:37:18.909Z,25.53
2018-03-30T14:39:49.402Z,25.58
2018-03-30T14:42:24.212Z,25.59
2018-03-30T14:44:52.851Z,25.54
2018-03-30T14:47:38.472Z,25.55
2018-03-30T14:50:10.742Z,25.57
2018-03-30T14:52:45.109Z,25.57
2018-03-30T14:55:26.837Z,25.60
2018-03-30T14:57:57.889Z,25.59
2018-03-30T15:00:36.934Z,25.58
2018-03-30T15:03:11.133Z,25.59
2018-03-30T15:05:42.440Z,25.59
2018-03-30T15:21:37.788Z,25.55
2018-03-30T15:24:11.914Z,25.56
2018-03-30T15:26:47.029Z,25.53
2018-03-30T15:29:33.016Z,25.51
2018-03-30T15:32:13.387Z,25.47
2018-03-30T15:34:45.854Z,25.44
2018-03-30T15:37:15.716Z,25.44
2018-03-30T15:53:06.964Z,25.39
2018-03-30T15:55:36.060Z,25.36
2018-03-30T15:58:04.713Z,25.35
2018-03-30T16:00:34.085Z,25.35
2018-03-30T16:03:03.180Z,25.35
2018-03-30T16:05:32.310Z,25.33
2018-03-30T16:08:01.716Z,25.34
2018-03-30T16:23:55.886Z,25.28
2018-03-30T16:26:23.957Z,25.28
2018-03-30T16:28:52.029Z,25.28
2018-03-30T16:31:20.350Z,25.25
2018-03-30T16:33:48.418Z,25.25
2018-03-30T16:36:16.493Z,25.25
2018-03-30T16:38:44.597Z,25.25
2018-03-30T16:41:12.678Z,25.26
2018-03-30T16:43:40.745Z,25.23
2018-03-30T16:46:08.845Z,25.24
2018-03-30T16:48:37.173Z,25.22
2018-03-30T16:51:05.244Z,25.23
2018-03-30T16:53:33.367Z,25.23
2018-03-30T16:56:01.449Z,25.21
2018-03-30T16:58:29.538Z,25.22
2018-03-30T17:00:57.646Z,25.21
2018-03-30T17:03:25.721Z,25.19
2018-03-30T17:05:53.798Z,25.20
2018-03-30T17:08:23.047Z,25.19
2018-03-30T17:10:51.134Z,25.20
2018-03-30T17:13:19.215Z,25.19
2018-03-30T17:15:47.446Z,25.20
2018-03-30T17:18:15.522Z,25.18
2018-03-30T17:20:43.601Z,25.17
2018-03-30T17:23:11.892Z,25.17
2018-03-30T17:25:40.005Z,25.17
2018-03-30T17:28:08.100Z,25.17
2018-03-30T17:30:36.210Z,25.16
2018-03-30T17:33:04.058Z,25.16
2018-03-30T17:35:32.130Z,25.15
2018-03-30T17:38:00.221Z,25.15
2018-03-30T17:40:28.295Z,25.14
2018-03-30T17:42:56.375Z,25.12
2018-03-30T17:45:24.498Z,25.13
2018-03-30T17:47:52.597Z,25.13
2018-03-30T17:50:20.667Z,25.11
2018-03-30T17:52:48.762Z,25.11
2018-03-30T17:55:16.850Z,25.11
2018-03-30T17:57:44.879Z,25.11
2018-03-30T18:00:12.781Z,25.11
2018-03-30T18:02:40.870Z,25.11
2018-03-30T18:05:08.950Z,25.10
2018-03-30T18:07:37.037Z,25.09
2018-03-30T18:10:05.117Z,25.10
2018-03-30T18:12:33.025Z,25.08
2018-03-30T18:15:01.124Z,25.10
2018-03-30T18:17:28.965Z,25.11
2018-03-30T18:19:57.045Z,25.11
2018-03-30T18:22:25.136Z,25.10
2018-03-30T18:24:52.986Z,25.10
2018-03-30T18:27:21.065Z,25.10
2018-03-30T18:29:49.213Z,25.10
2018-03-30T18:32:17.278Z,25.11
2018-03-30T18:34:45.353Z,25.11
2018-03-30T18:37:13.632Z,25.11
2018-03-30T18:39:41.706Z,25.10
2018-03-30T18:42:09.817Z,25.11
2018-03-30T18:44:37.923Z,25.11
2018-03-30T18:47:05.992Z,25.09
2018-03-30T18:49:34.089Z,25.11
2018-03-30T18:52:02.190Z,25.11
2018-03-30T18:54:30.286Z,25.10
2018-03-30T18:56:58.363Z,25.10
2018-03-30T18:59:26.451Z,25.11
2018-03-30T19:01:54.541Z,25.09
2018-03-30T19:04:22.619Z,25.10
2018-03-30T19:06:50.708Z,25.11
2018-03-30T19:09:18.794Z,25.10
2018-03-30T19:11:46.888Z,25.10
2018-03-30T19:14:14.810Z,25.10
2018-03-30T19:16:42.672Z,25.12
2018-03-30T19:19:10.761Z,25.11
2018-03-30T19:21:38.858Z,25.11
2018-03-30T19:24:06.948Z,25.11
2018-03-30T19:26:35.052Z,25.10
2018-03-30T19:29:03.404Z,25.12
2018-03-30T19:31:31.477Z,25.11
2018-03-30T19:33:59.569Z,25.12
2018-03-30T19:36:27.671Z,25.11
2018-03-30T19:38:55.747Z,25.12
2018-03-30T19:41:23.720Z,25.12
2018-03-30T19:43:51.813Z,25.10
2018-03-30T19:46:19.885Z,25.10
2018-03-30T19:48:47.956Z,25.11
2018-03-30T19:51:16.057Z,25.12
2018-03-30T19:53:44.252Z,25.11
2018-03-30T19:56:12.361Z,25.12
2018-03-30T19:58:40.454Z,25.12
2018-03-30T20:01:08.518Z,25.11
2018-03-30T20:03:36.649Z,25.12
2018-03-30T20:06:04.642Z,25.13
2018-03-30T20:08:32.739Z,25.18
2018-03-30T20:11:00.811Z,25.21
2018-03-30T20:13:28.904Z,25.24
2018-03-30T20:15:56.961Z,25.26
2018-03-30T20:18:25.041Z,25.28
2018-03-30T20:20:53.134Z,25.29
2018-03-30T20:23:21.205Z,25.30
2018-03-30T20:25:49.276Z,25.32
2018-03-30T20:28:17.377Z,25.34
2018-03-30T20:30:45.455Z,25.34
2018-03-30T20:33:13.757Z,25.38
2018-03-30T20:35:42.303Z,25.39
2018-03-30T20:38:10.563Z,25.41
2018-03-30T20:40:38.735Z,25.42
2018-03-30T20:43:07.145Z,25.43
2018-03-30T20:45:35.213Z,25.45
2018-03-30T20:48:03.618Z,25.46
2018-03-30T20:50:32.021Z,25.47
2018-03-30T20:53:00.174Z,25.48
2018-03-30T20:55:28.244Z,25.49
2018-03-30T20:57:56.107Z,25.49
2018-03-30T21:00:24.183Z,25.51
2018-03-30T21:02:52.256Z,25.52
2018-03-30T21:05:20.435Z,25.52
2018-03-30T21:07:48.505Z,25.53
2018-03-30T21:10:16.569Z,25.53
2018-03-30T21:12:44.913Z,25.54
2018-03-30T21:15:12.994Z,25.55
2018-03-30T21:17:41.063Z,25.56
2018-03-30T21:20:09.486Z,25.56
2018-03-30T21:22:37.557Z,25.56
2018-03-30T21:25:05.747Z,25.56
2018-03-30T21:27:33.866Z,25.58
2018-03-30T21:30:01.943Z,25.57
2018-03-30T21:32:30.019Z,25.58
2018-03-30T21:34:58.107Z,25.59
2018-03-30T21:37:26.213Z,25.59
2018-03-30T21:39:54.289Z,25.59
2018-03-30T21:42:22.393Z,25.60
2018-03-30T21:44:50.460Z,25.60
2018-03-30T21:47:18.334Z,25.59
2018-03-30T21:49:46.433Z,25.61
2018-03-30T21:52:14.503Z,25.61
2018-03-30T21:54:42.461Z,25.61
2018-03-30T21:57:10.815Z,25.61
2018-03-30T21:59:38.890Z,25.63
2018-03-30T22:02:06.981Z,25.63
2018-03-30T22:04:34.860Z,25.63
2018-03-30T22:07:02.837Z,25.63
2018-03-30T22:09:30.713Z,25.62
2018-03-30T22:11:58.592Z,25.64
2018-03-30T22:14:26.668Z,25.64
2018-03-30T22:16:54.741Z,25.64
2018-03-30T22:19:23.083Z,25.65
2018-03-30T22:21:51.148Z,25.64
2018-03-30T22:24:19.225Z,25.65
2018-03-30T22:26:47.574Z,25.66
2018-03-30T22:29:15.654Z,25.67
2018-03-30T22:31:43.726Z,25.65
2018-03-30T22:34:11.839Z,25.65
2018-03-30T22:36:39.918Z,25.66
2018-03-30T22:39:07.986Z,25.67
2018-03-30T22:41:36.346Z,25.66
2018-03-30T22:44:04.427Z,25.68
2018-03-30T22:46:32.503Z,25.68
2018-03-30T22:49:00.855Z,25.68
2018-03-30T22:51:28.918Z,25.68
2018-03-30T22:53:56.986Z,25.70
2018-03-30T22:56:25.149Z,25.68
2018-03-30T22:58:53.413Z,25.69
2018-03-30T23:01:21.485Z,25.68
2018-03-30T23:03:49.854Z,25.67
2018-03-30T23:06:17.925Z,25.68
2018-03-30T23:08:46.016Z,25.67
2018-03-30T23:11:15.195Z,25.68
2018-03-30T23:13:43.133Z,25.68
2018-03-30T23:16:11.205Z,25.67
2018-03-30T23:18:39.670Z,25.68
2018-03-30T23:21:07.549Z,25.67
2018-03-30T23:23:35.618Z,25.67
2018-03-30T23:26:04.091Z,25.68
2018-03-30T23:28:32.175Z,25.67
2018-03-30T23:31:00.024Z,25.67
2018-03-30T23:33:28.113Z,25.67
2018-03-30T23:35:55.960Z,25.66
2018-03-30T23:38:24.025Z,25.67
2018-03-30T23:40:52.510Z,25.66
2018-03-30T23:43:20.579Z,25.67
2018-03-30T23:45:48.653Z,25.67
2018-03-30T23:48:17.129Z,25.67
2018-03-30T23:50:45.220Z,25.67
2018-03-30T23:53:13.310Z,25.67
2018-03-30T23:55:41.411Z,25.67
2018-03-30T23:58:09.484Z,25.66
